createdAt,value
2018-11-03T00:00:56.282Z,1002.35
2018-11-03T00:01:56.502Z,1002.30
2018-11-03T00:02:56.724Z,1002.23
2018-11-03T00:03:56.950Z,1002.15
2018-11-03T00:04:57.176Z,1002.10
2018-11-03T00:05:57.403Z,1002.06
2018-11-03T00:06:57.636Z,1002.09
2018-11-03T00:07:57.877Z,1002.11
2018-11-03T00:08:58.078Z,1002.14
2018-11-03T00:09:58.302Z,1002.15
2018-11-03T00:10:58.527Z,1002.22
2018-11-03T00:11:58.752Z,1002.19
2018-11-03T00:12:58.982Z,1002.23
2018-11-03T00:13:59.207Z,1002.20
2018-11-03T00:14:59.438Z,1002.22
2018-11-03T00:15:59.663Z,1002.26
2018-11-03T00:16:59.886Z,1002.30
2018-11-03T00:18:00.113Z,1002.37
2018-11-03T00:19:00.336Z,1002.37
2018-11-03T00:20:00.566Z,1002.42
2018-11-03T00:21:00.790Z,1002.42
2018-11-03T00:22:01.023Z,1002.40
2018-11-03T00:23:01.242Z,1002.39
2018-11-03T00:24:01.464Z,1002.41
2018-11-03T00:25:01.686Z,1002.41
2018-11-03T00:26:01.909Z,1002.41
2018-11-03T00:27:02.142Z,1002.43
2018-11-03T00:28:02.361Z,1002.39
2018-11-03T00:29:02.589Z,1002.40
2018-11-03T00:30:02.812Z,1002.42
2018-11-03T00:31:03.037Z,1002.39
2018-11-03T00:32:03.268Z,1002.39
2018-11-03T00:33:03.485Z,1002.41
2018-11-03T00:34:03.706Z,1002.39
2018-11-03T00:35:03.931Z,1002.42
2018-11-03T00:36:04.160Z,1002.37
2018-11-03T00:37:04.383Z,1002.38
2018-11-03T00:38:04.609Z,1002.36
2018-11-03T00:39:04.832Z,1002.39
2018-11-03T00:40:05.057Z,1002.40
2018-11-03T00:41:05.288Z,1002.37
2018-11-03T00:42:05.507Z,1002.43
2018-11-03T00:43:05.731Z,1002.41
2018-11-03T00:44:05.959Z,1002.37
2018-11-03T00:45:06.183Z,1002.39
2018-11-03T00:46:06.408Z,1002.36
2018-11-03T00:47:06.630Z,1002.34
2018-11-03T00:48:06.863Z,1002.32
2018-11-03T00:49:07.082Z,1002.31
2018-11-03T00:50:07.310Z,1002.30
2018-11-03T00:51:07.532Z,1002.27
2018-11-03T00:52:07.758Z,1002.24
2018-11-03T00:53:07.985Z,1002.27
2018-11-03T00:54:08.211Z,1002.23
2018-11-03T00:55:08.428Z,1002.24
2018-11-03T00:56:08.653Z,1002.24
2018-11-03T00:57:08.873Z,1002.22
2018-11-03T00:58:09.103Z,1002.26
2018-11-03T00:59:09.326Z,1002.24
2018-11-03T01:00:09.548Z,1002.26
2018-11-03T01:01:09.787Z,1002.31
2018-11-03T01:02:09.998Z,1002.35
2018-11-03T01:03:10.220Z,1002.37
2018-11-03T01:04:10.441Z,1002.42
2018-11-03T01:05:10.667Z,1002.42
2018-11-03T01:06:10.893Z,1002.48
2018-11-03T01:07:11.119Z,1002.45
2018-11-03T01:08:11.343Z,1002.47
2018-11-03T01:09:11.572Z,1002.49
2018-11-03T01:10:11.795Z,1002.45
2018-11-03T01:11:12.018Z,1002.44
2018-11-03T01:12:12.241Z,1002.46
2018-11-03T01:13:12.460Z,1002.48
2018-11-03T01:14:12.685Z,1002.45
2018-11-03T01:15:12.913Z,1002.46
2018-11-03T01:16:13.142Z,1002.45
2018-11-03T01:17:13.362Z,1002.39
2018-11-03T01:18:13.591Z,1002.41
2018-11-03T01:19:13.815Z,1002.39
2018-11-03T01:20:14.038Z,1002.39
2018-11-03T01:21:14.253Z,1002.37
2018-11-03T01:22:14.496Z,1002.39
2018-11-03T01:23:14.717Z,1002.39
2018-11-03T01:24:14.941Z,1002.38
2018-11-03T01:25:15.202Z,1002.38
2018-11-03T01:26:15.388Z,1002.40
2018-11-03T01:27:15.611Z,1002.45
2018-11-03T01:28:15.840Z,1002.46
2018-11-03T01:29:16.054Z,1002.50
2018-11-03T01:30:16.282Z,1002.51
2018-11-03T01:31:16.506Z,1002.51
2018-11-03T01:32:16.738Z,1002.51
2018-11-03T01:33:16.983Z,1002.47
2018-11-03T01:34:17.207Z,1002.44
2018-11-03T01:35:17.423Z,1002.45
2018-11-03T01:36:17.637Z,1002.41
2018-11-03T01:37:17.859Z,1002.46
2018-11-03T01:38:18.083Z,1002.47
2018-11-03T01:39:18.307Z,1002.48
2018-11-03T01:40:18.533Z,1002.49
2018-11-03T01:41:18.767Z,1002.50
2018-11-03T01:42:18.998Z,1002.51
2018-11-03T01:43:19.217Z,1002.48
2018-11-03T01:44:19.434Z,1002.43
2018-11-03T01:45:19.656Z,1002.46
2018-11-03T01:46:19.882Z,1002.45
2018-11-03T01:47:20.105Z,1002.49
2018-11-03T01:48:20.332Z,1002.45
2018-11-03T01:49:20.554Z,1002.46
2018-11-03T01:50:20.777Z,1002.46
2018-11-03T01:51:21.003Z,1002.46
2018-11-03T01:52:21.228Z,1002.47
2018-11-03T01:53:21.451Z,1002.51
2018-11-03T01:54:21.672Z,1002.56
2018-11-03T01:55:21.896Z,1002.61
2018-11-03T01:56:22.123Z,1002.62
2018-11-03T01:57:22.348Z,1002.62
2018-11-03T01:58:22.569Z,1002.62
2018-11-03T01:59:22.798Z,1002.63
2018-11-03T02:00:23.072Z,1002.64
2018-11-03T02:01:23.245Z,1002.64
2018-11-03T02:02:23.469Z,1002.64
2018-11-03T02:03:23.693Z,1002.62
2018-11-03T02:04:23.922Z,1002.60
2018-11-03T02:05:24.143Z,1002.62
2018-11-03T02:06:24.370Z,1002.61
2018-11-03T02:07:24.594Z,1002.60
2018-11-03T02:08:24.817Z,1002.61
2018-11-03T02:09:25.041Z,1002.56
2018-11-03T02:10:25.263Z,1002.60
2018-11-03T02:11:25.489Z,1002.58
2018-11-03T02:12:25.714Z,1002.62
2018-11-03T02:13:25.940Z,1002.60
2018-11-03T02:14:26.168Z,1002.60
2018-11-03T02:15:26.385Z,1002.64
2018-11-03T02:16:26.608Z,1002.64
2018-11-03T02:17:26.840Z,1002.67
2018-11-03T02:18:27.057Z,1002.69
2018-11-03T02:19:27.279Z,1002.69
2018-11-03T02:20:27.503Z,1002.73
2018-11-03T02:21:27.724Z,1002.72
2018-11-03T02:22:27.953Z,1002.74
2018-11-03T02:23:28.175Z,1002.75
2018-11-03T02:24:28.399Z,1002.72
2018-11-03T02:25:28.625Z,1002.73
2018-11-03T02:26:28.850Z,1002.71
2018-11-03T02:27:29.072Z,1002.70
2018-11-03T02:28:29.297Z,1002.72
2018-11-03T02:29:29.522Z,1002.72
2018-11-03T02:30:29.747Z,1002.68
2018-11-03T02:31:29.971Z,1002.66
2018-11-03T02:32:30.196Z,1002.69
2018-11-03T02:33:30.416Z,1002.68
2018-11-03T02:34:30.651Z,1002.71
2018-11-03T02:35:30.868Z,1002.69
2018-11-03T02:36:31.091Z,1002.67
2018-11-03T02:37:31.349Z,1002.70
2018-11-03T02:38:31.538Z,1002.68
2018-11-03T02:39:31.762Z,1002.69
2018-11-03T02:40:31.997Z,1002.70
2018-11-03T02:41:32.205Z,1002.71
2018-11-03T02:42:32.432Z,1002.78
2018-11-03T02:43:32.655Z,1002.77
2018-11-03T02:44:32.907Z,1002.79
2018-11-03T02:45:33.105Z,1002.83
2018-11-03T02:46:33.374Z,1002.84
2018-11-03T02:47:33.595Z,1002.85
2018-11-03T02:48:33.826Z,1002.86
2018-11-03T02:49:34.054Z,1002.79
2018-11-03T02:50:34.271Z,1002.82
2018-11-03T02:51:34.488Z,1002.81
2018-11-03T02:52:34.719Z,1002.77
2018-11-03T02:53:34.944Z,1002.74
2018-11-03T02:54:35.165Z,1002.76
2018-11-03T02:55:35.388Z,1002.74
2018-11-03T02:56:35.613Z,1002.75
2018-11-03T02:57:35.832Z,1002.69
2018-11-03T02:58:36.059Z,1002.73
2018-11-03T02:59:36.285Z,1002.66
2018-11-03T03:00:36.512Z,1002.65
2018-11-03T03:01:36.739Z,1002.65
2018-11-03T03:02:36.962Z,1002.69
2018-11-03T03:03:37.183Z,1002.69
2018-11-03T03:04:37.407Z,1002.77
2018-11-03T03:05:37.626Z,1002.77
2018-11-03T03:06:37.852Z,1002.80
2018-11-03T03:07:38.076Z,1002.78
2018-11-03T03:08:38.301Z,1002.80
2018-11-03T03:09:38.528Z,1002.78
2018-11-03T03:10:38.749Z,1002.78
2018-11-03T03:11:38.968Z,1002.76
2018-11-03T03:12:39.195Z,1002.78
2018-11-03T03:13:39.438Z,1002.79
2018-11-03T03:14:39.642Z,1002.77
2018-11-03T03:15:39.873Z,1002.80
2018-11-03T03:16:40.096Z,1002.77
2018-11-03T03:17:40.321Z,1002.82
2018-11-03T03:18:40.548Z,1002.80
2018-11-03T03:19:40.767Z,1002.80
2018-11-03T03:20:40.991Z,1002.83
2018-11-03T03:21:41.218Z,1002.84
2018-11-03T03:22:41.440Z,1002.84
2018-11-03T03:23:41.671Z,1002.85
2018-11-03T03:24:41.891Z,1002.85
2018-11-03T03:25:42.114Z,1002.85
2018-11-03T03:26:42.336Z,1002.89
2018-11-03T03:27:42.559Z,1002.87
2018-11-03T03:28:42.838Z,1002.89
2018-11-03T03:29:43.095Z,1002.89
2018-11-03T03:30:43.233Z,1002.89
2018-11-03T03:31:43.459Z,1002.89
2018-11-03T03:32:43.680Z,1002.85
2018-11-03T03:33:43.907Z,1002.84
2018-11-03T03:34:44.136Z,1002.82
2018-11-03T03:35:44.359Z,1002.81
2018-11-03T03:36:44.581Z,1002.86
2018-11-03T03:37:44.806Z,1002.80
2018-11-03T03:38:45.028Z,1002.79
2018-11-03T03:39:45.253Z,1002.78
2018-11-03T03:40:45.478Z,1002.79
2018-11-03T03:41:45.703Z,1002.82
2018-11-03T03:42:45.934Z,1002.82
2018-11-03T03:43:46.151Z,1002.88
2018-11-03T03:44:46.379Z,1002.84
2018-11-03T03:45:46.605Z,1002.89
2018-11-03T03:46:46.826Z,1002.87
2018-11-03T03:47:47.049Z,1002.92
2018-11-03T03:48:47.273Z,1002.88
2018-11-03T03:49:47.499Z,1002.91
2018-11-03T03:50:47.721Z,1002.89
2018-11-03T03:51:47.939Z,1002.93
2018-11-03T03:52:48.157Z,1002.91
2018-11-03T03:53:48.388Z,1002.92
2018-11-03T03:54:48.605Z,1002.93
2018-11-03T03:55:48.835Z,1002.89
2018-11-03T03:56:49.052Z,1002.90
2018-11-03T03:57:49.277Z,1002.92
2018-11-03T03:58:49.498Z,1002.92
2018-11-03T03:59:49.723Z,1002.90
2018-11-03T04:00:49.952Z,1002.92
2018-11-03T04:01:50.174Z,1002.90
2018-11-03T04:02:50.397Z,1002.88
2018-11-03T04:03:50.622Z,1002.91
2018-11-03T04:04:50.848Z,1002.90
2018-11-03T04:05:51.081Z,1002.95
2018-11-03T04:06:51.295Z,1002.93
2018-11-03T04:07:51.521Z,1002.90
2018-11-03T04:08:51.744Z,1002.91
2018-11-03T04:09:51.972Z,1002.92
2018-11-03T04:10:52.193Z,1002.92
2018-11-03T04:11:52.416Z,1002.96
2018-11-03T04:12:52.640Z,1002.97
2018-11-03T04:13:52.862Z,1002.97
2018-11-03T04:14:53.088Z,1002.97
2018-11-03T04:15:53.312Z,1002.92
2018-11-03T04:16:53.544Z,1002.91
2018-11-03T04:17:53.760Z,1002.89
2018-11-03T04:18:53.986Z,1002.90
2018-11-03T04:19:54.215Z,1002.89
2018-11-03T04:20:54.459Z,1002.91
2018-11-03T04:21:54.656Z,1002.89
2018-11-03T04:22:54.880Z,1002.92
2018-11-03T04:23:55.116Z,1002.88
2018-11-03T04:24:55.330Z,1002.88
2018-11-03T04:25:55.594Z,1002.88
2018-11-03T04:26:55.760Z,1002.86
2018-11-03T04:27:55.978Z,1002.84
2018-11-03T04:28:56.205Z,1002.80
2018-11-03T04:29:56.427Z,1002.81
2018-11-03T04:30:56.651Z,1002.78
2018-11-03T04:31:56.895Z,1002.82
2018-11-03T04:32:57.149Z,1002.82
2018-11-03T04:33:57.362Z,1002.81
2018-11-03T04:34:57.588Z,1002.80
2018-11-03T04:35:57.808Z,1002.80
2018-11-03T04:36:58.031Z,1002.79
2018-11-03T04:37:58.266Z,1002.82
2018-11-03T04:38:58.516Z,1002.84
2018-11-03T04:39:58.732Z,1002.83
2018-11-03T04:40:58.954Z,1002.89
2018-11-03T04:41:59.176Z,1002.87
2018-11-03T04:42:59.403Z,1002.88
2018-11-03T04:43:59.632Z,1002.85
2018-11-03T04:44:59.850Z,1002.89
2018-11-03T04:46:00.073Z,1002.91
2018-11-03T04:47:00.295Z,1002.89
2018-11-03T04:48:00.518Z,1002.87
2018-11-03T04:49:00.741Z,1002.89
2018-11-03T04:50:00.967Z,1002.94
2018-11-03T04:51:01.194Z,1002.92
2018-11-03T04:52:01.411Z,1002.94
2018-11-03T04:53:01.634Z,1002.95
2018-11-03T04:54:01.858Z,1002.95
2018-11-03T04:55:02.118Z,1002.95
2018-11-03T04:56:02.311Z,1002.95
2018-11-03T04:57:02.531Z,1002.91
2018-11-03T04:58:02.756Z,1002.89
2018-11-03T04:59:02.983Z,1002.92
2018-11-03T05:00:03.211Z,1002.91
2018-11-03T05:01:03.430Z,1002.90
2018-11-03T05:02:03.662Z,1002.90
2018-11-03T05:03:03.885Z,1002.89
2018-11-03T05:04:04.106Z,1002.87
2018-11-03T05:05:04.327Z,1002.88
2018-11-03T05:06:04.555Z,1002.90
2018-11-03T05:07:04.775Z,1002.87
2018-11-03T05:08:05.001Z,1002.86
2018-11-03T05:09:05.225Z,1002.87
2018-11-03T05:10:05.490Z,1002.86
2018-11-03T05:11:05.687Z,1002.87
2018-11-03T05:12:05.900Z,1002.87
2018-11-03T05:13:06.121Z,1002.90
2018-11-03T05:14:06.345Z,1002.88
2018-11-03T05:15:06.570Z,1002.89
2018-11-03T05:16:06.793Z,1002.94
2018-11-03T05:17:07.053Z,1002.93
2018-11-03T05:18:07.245Z,1002.95
2018-11-03T05:19:07.467Z,1002.96
2018-11-03T05:20:07.687Z,1002.97
2018-11-03T05:21:07.949Z,1002.97
2018-11-03T05:22:08.153Z,1003.01
2018-11-03T05:23:08.367Z,1003.00
2018-11-03T05:24:08.588Z,1002.99
2018-11-03T05:25:08.815Z,1002.98
2018-11-03T05:26:09.035Z,1002.98
2018-11-03T05:27:09.261Z,1002.96
2018-11-03T05:28:09.480Z,1002.95
2018-11-03T05:29:09.705Z,1002.96
2018-11-03T05:30:09.928Z,1002.96
2018-11-03T05:31:10.271Z,1002.99
2018-11-03T05:32:10.379Z,1003.01
2018-11-03T05:33:10.595Z,1002.96
2018-11-03T05:34:10.819Z,1002.99
2018-11-03T05:35:11.043Z,1002.98
2018-11-03T05:36:11.262Z,1002.99
2018-11-03T05:37:11.489Z,1002.98
2018-11-03T05:38:11.712Z,1002.97
2018-11-03T05:39:11.931Z,1002.95
2018-11-03T05:40:12.172Z,1002.96
2018-11-03T05:41:12.383Z,1002.99
2018-11-03T05:42:12.604Z,1002.94
2018-11-03T05:43:12.832Z,1002.98
2018-11-03T05:44:13.048Z,1002.92
2018-11-03T05:45:13.272Z,1002.98
2018-11-03T05:46:13.509Z,1002.95
2018-11-03T05:47:13.720Z,1003.01
2018-11-03T05:48:13.941Z,1002.98
2018-11-03T05:49:14.164Z,1002.97
2018-11-03T05:50:14.388Z,1003.00
2018-11-03T05:51:14.612Z,1002.98
2018-11-03T05:52:14.842Z,1002.98
2018-11-03T05:53:15.065Z,1002.97
2018-11-03T05:54:15.291Z,1002.96
2018-11-03T05:55:15.516Z,1003.00
2018-11-03T05:56:15.751Z,1002.99
2018-11-03T05:57:15.971Z,1002.97
2018-11-03T05:58:16.205Z,1002.96
2018-11-03T05:59:16.407Z,1002.93
2018-11-03T06:00:16.635Z,1002.97
2018-11-03T06:01:16.862Z,1003.01
2018-11-03T06:02:17.085Z,1003.01
2018-11-03T06:03:17.313Z,1003.01
2018-11-03T06:04:17.531Z,1002.98
2018-11-03T06:05:17.760Z,1002.98
2018-11-03T06:06:17.980Z,1002.95
2018-11-03T06:07:18.204Z,1002.99
2018-11-03T06:08:18.430Z,1003.02
2018-11-03T06:09:18.655Z,1003.10
2018-11-03T06:10:18.879Z,1003.14
2018-11-03T06:11:19.117Z,1003.13
2018-11-03T06:12:19.318Z,1003.13
2018-11-03T06:13:19.537Z,1003.14
2018-11-03T06:14:19.766Z,1003.13
2018-11-03T06:15:20.061Z,1003.11
2018-11-03T06:16:20.215Z,1003.11
2018-11-03T06:17:20.440Z,1003.11
2018-11-03T06:18:20.664Z,1003.14
2018-11-03T06:19:20.891Z,1003.13
2018-11-03T06:20:21.110Z,1003.15
2018-11-03T06:21:21.332Z,1003.16
2018-11-03T06:22:21.627Z,1003.19
2018-11-03T06:23:21.836Z,1003.19
2018-11-03T06:24:22.005Z,1003.19
2018-11-03T06:25:22.230Z,1003.22
2018-11-03T06:26:22.454Z,1003.22
2018-11-03T06:27:22.678Z,1003.25
2018-11-03T06:28:22.902Z,1003.26
2018-11-03T06:29:23.126Z,1003.28
2018-11-03T06:30:23.347Z,1003.32
2018-11-03T06:31:23.603Z,1003.27
2018-11-03T06:32:23.799Z,1003.32
2018-11-03T06:33:24.023Z,1003.33
2018-11-03T06:34:24.248Z,1003.33
2018-11-03T06:35:24.544Z,1003.33
2018-11-03T06:36:24.697Z,1003.38
2018-11-03T06:37:24.923Z,1003.34
2018-11-03T06:38:25.142Z,1003.32
2018-11-03T06:39:25.366Z,1003.34
2018-11-03T06:40:25.589Z,1003.32
2018-11-03T06:41:25.826Z,1003.34
2018-11-03T06:42:26.036Z,1003.32
2018-11-03T06:43:26.260Z,1003.37
2018-11-03T06:44:26.487Z,1003.38
2018-11-03T06:45:26.710Z,1003.35
2018-11-03T06:46:26.938Z,1003.35
2018-11-03T06:47:27.254Z,1003.37
2018-11-03T06:48:27.382Z,1003.40
2018-11-03T06:49:27.607Z,1003.35
2018-11-03T06:50:27.833Z,1003.36
2018-11-03T06:51:28.061Z,1003.39
2018-11-03T06:52:28.282Z,1003.37
2018-11-03T06:53:28.505Z,1003.35
2018-11-03T06:54:28.730Z,1003.37
2018-11-03T06:55:28.952Z,1003.37
2018-11-03T06:56:29.176Z,1003.35
2018-11-03T06:57:29.401Z,1003.38
2018-11-03T06:58:29.626Z,1003.35
2018-11-03T06:59:29.866Z,1003.38
2018-11-03T07:00:30.078Z,1003.41
2018-11-03T07:01:30.305Z,1003.44
2018-11-03T07:02:30.533Z,1003.47
2018-11-03T07:03:30.753Z,1003.51
2018-11-03T07:04:30.974Z,1003.49
2018-11-03T07:05:31.200Z,1003.55
2018-11-03T07:06:31.425Z,1003.55
2018-11-03T07:07:31.652Z,1003.57
2018-11-03T07:08:31.876Z,1003.59
2018-11-03T07:09:32.092Z,1003.59
2018-11-03T07:10:32.317Z,1003.57
2018-11-03T07:11:32.616Z,1003.57
2018-11-03T07:12:32.912Z,1003.57
2018-11-03T07:13:32.982Z,1003.59
2018-11-03T07:14:33.208Z,1003.59
2018-11-03T07:15:33.429Z,1003.60
2018-11-03T07:16:33.650Z,1003.66
2018-11-03T07:17:33.876Z,1003.64
2018-11-03T07:18:34.106Z,1003.61
2018-11-03T07:19:34.325Z,1003.63
2018-11-03T07:20:34.548Z,1003.64
2018-11-03T07:21:34.791Z,1003.65
2018-11-03T07:22:34.996Z,1003.65
2018-11-03T07:23:35.214Z,1003.66
2018-11-03T07:24:35.440Z,1003.65
2018-11-03T07:25:35.669Z,1003.64
2018-11-03T07:26:35.899Z,1003.58
2018-11-03T07:27:36.115Z,1003.60
2018-11-03T07:28:36.338Z,1003.64
2018-11-03T07:29:36.574Z,1003.64
2018-11-03T07:30:36.789Z,1003.66
2018-11-03T07:31:37.016Z,1003.66
2018-11-03T07:32:37.256Z,1003.67
2018-11-03T07:33:37.468Z,1003.67
2018-11-03T07:34:37.691Z,1003.66
2018-11-03T07:35:37.915Z,1003.64
2018-11-03T07:36:38.143Z,1003.65
2018-11-03T07:37:38.360Z,1003.63
2018-11-03T07:38:38.587Z,1003.61
2018-11-03T07:39:38.816Z,1003.67
2018-11-03T07:40:39.065Z,1003.66
2018-11-03T07:41:39.411Z,1003.62
2018-11-03T07:42:39.531Z,1003.59
2018-11-03T07:43:39.730Z,1003.59
2018-11-03T07:44:39.932Z,1003.59
2018-11-03T07:45:40.160Z,1003.59
2018-11-03T07:46:40.416Z,1003.59
2018-11-03T07:47:40.608Z,1003.64
2018-11-03T07:48:40.898Z,1003.64
2018-11-03T07:49:41.056Z,1003.63
2018-11-03T07:50:41.282Z,1003.67
2018-11-03T07:51:41.507Z,1003.65
2018-11-03T07:52:41.743Z,1003.64
2018-11-03T07:53:41.961Z,1003.62
2018-11-03T07:54:42.213Z,1003.63
2018-11-03T07:55:42.404Z,1003.63
2018-11-03T07:56:42.628Z,1003.64
2018-11-03T07:57:42.853Z,1003.65
2018-11-03T07:58:43.079Z,1003.62
2018-11-03T07:59:43.305Z,1003.63
2018-11-03T08:00:43.635Z,1003.61
2018-11-03T08:01:43.757Z,1003.65
2018-11-03T08:02:43.981Z,1003.62
2018-11-03T08:03:44.206Z,1003.63
2018-11-03T08:04:44.431Z,1003.61
2018-11-03T08:05:44.654Z,1003.60
2018-11-03T08:06:44.879Z,1003.57
2018-11-03T08:07:45.101Z,1003.58
2018-11-03T08:08:45.352Z,1003.58
2018-11-03T08:09:45.554Z,1003.59
2018-11-03T08:10:45.780Z,1003.61
2018-11-03T08:11:46.006Z,1003.60
2018-11-03T08:12:46.231Z,1003.54
2018-11-03T08:13:46.457Z,1003.57
2018-11-03T08:14:46.684Z,1003.57
2018-11-03T08:15:47.047Z,1003.56
2018-11-03T08:16:47.131Z,1003.54
2018-11-03T08:17:47.354Z,1003.53
2018-11-03T08:18:47.578Z,1003.52
2018-11-03T08:19:47.804Z,1003.56
2018-11-03T08:20:48.030Z,1003.57
2018-11-03T08:21:48.254Z,1003.55
2018-11-03T08:22:48.482Z,1003.56
2018-11-03T08:23:48.717Z,1003.52
2018-11-03T08:24:48.935Z,1003.49
2018-11-03T08:25:49.162Z,1003.48
2018-11-03T08:26:49.386Z,1003.50
2018-11-03T08:27:49.624Z,1003.50
2018-11-03T08:28:49.837Z,1003.52
2018-11-03T08:29:50.057Z,1003.48
2018-11-03T08:30:50.289Z,1003.47
2018-11-03T08:31:50.508Z,1003.49
2018-11-03T08:32:50.733Z,1003.48
2018-11-03T08:33:50.961Z,1003.47
2018-11-03T08:34:51.182Z,1003.49
2018-11-03T08:35:51.409Z,1003.51
2018-11-03T08:36:51.634Z,1003.54
2018-11-03T08:37:51.868Z,1003.55
2018-11-03T08:38:52.094Z,1003.51
2018-11-03T08:39:52.306Z,1003.50
2018-11-03T08:40:52.533Z,1003.52
2018-11-03T08:41:52.829Z,1003.52
2018-11-03T08:42:52.984Z,1003.55
2018-11-03T08:43:53.206Z,1003.56
2018-11-03T08:44:53.420Z,1003.59
2018-11-03T08:45:53.650Z,1003.57
2018-11-03T08:46:53.872Z,1003.57
2018-11-03T08:47:54.102Z,1003.59
2018-11-03T08:48:55.118Z,1003.54
2018-11-03T08:49:54.538Z,1003.52
2018-11-03T08:50:54.765Z,1003.48
2018-11-03T08:51:54.991Z,1003.49
2018-11-03T08:52:55.252Z,1003.51
2018-11-03T08:53:55.439Z,1003.49
2018-11-03T08:54:55.669Z,1003.49
2018-11-03T08:55:55.898Z,1003.50
2018-11-03T08:56:56.125Z,1003.48
2018-11-03T08:57:56.349Z,1003.56
2018-11-03T08:58:56.573Z,1003.55
2018-11-03T08:59:57.002Z,1003.58
2018-11-03T09:00:57.026Z,1003.55
2018-11-03T09:01:57.251Z,1003.57
2018-11-03T09:02:57.494Z,1003.52
2018-11-03T09:03:57.700Z,1003.51
2018-11-03T09:04:57.931Z,1003.46
2018-11-03T09:05:58.156Z,1003.39
2018-11-03T09:06:58.430Z,1003.41
2018-11-03T09:07:58.601Z,1003.40
2018-11-03T09:08:58.828Z,1003.43
2018-11-03T09:09:59.051Z,1003.40
2018-11-03T09:10:59.569Z,1003.41
2018-11-03T09:11:59.546Z,1003.38
2018-11-03T09:12:59.769Z,1003.41
2018-11-03T09:13:59.998Z,1003.33
2018-11-03T09:15:00.291Z,1003.35
2018-11-03T09:16:00.448Z,1003.32
2018-11-03T09:17:00.675Z,1003.29
2018-11-03T09:18:00.908Z,1003.31
2018-11-03T09:19:01.131Z,1003.31
2018-11-03T09:20:01.369Z,1003.32
2018-11-03T09:21:01.582Z,1003.29
2018-11-03T09:22:01.838Z,1003.31
2018-11-03T09:23:02.034Z,1003.29
2018-11-03T09:24:02.260Z,1003.28
2018-11-03T09:25:02.492Z,1003.26
2018-11-03T09:26:02.716Z,1003.29
2018-11-03T09:27:02.941Z,1003.30
2018-11-03T09:28:03.169Z,1003.30
2018-11-03T09:29:03.396Z,1003.29
2018-11-03T09:30:03.620Z,1003.35
2018-11-03T09:31:03.846Z,1003.28
2018-11-03T09:32:04.176Z,1003.28
2018-11-03T09:33:04.299Z,1003.32
2018-11-03T09:34:04.525Z,1003.32
2018-11-03T09:35:04.750Z,1003.37
2018-11-03T09:36:04.977Z,1003.36
2018-11-03T09:37:05.206Z,1003.37
2018-11-03T09:38:05.429Z,1003.31
2018-11-03T09:39:05.698Z,1003.29
2018-11-03T09:40:05.881Z,1003.28
2018-11-03T09:41:06.109Z,1003.28
2018-11-03T09:42:06.336Z,1003.30
2018-11-03T09:43:06.568Z,1003.30
2018-11-03T09:44:06.811Z,1003.30
2018-11-03T09:45:07.111Z,1003.30
2018-11-03T09:46:07.241Z,1003.29
2018-11-03T09:47:07.467Z,1003.33
2018-11-03T09:48:07.697Z,1003.21
2018-11-03T09:49:07.918Z,1003.21
2018-11-03T09:50:08.151Z,1003.19
2018-11-03T09:51:08.400Z,1003.18
2018-11-03T09:52:08.602Z,1003.19
2018-11-03T09:53:08.827Z,1003.16
2018-11-03T09:54:09.057Z,1003.23
2018-11-03T09:55:09.284Z,1003.19
2018-11-03T09:56:09.506Z,1003.21
2018-11-03T09:57:09.736Z,1003.17
2018-11-03T09:58:09.957Z,1003.16
2018-11-03T09:59:10.187Z,1003.14
2018-11-03T10:00:10.413Z,1003.17
2018-11-03T10:01:10.642Z,1003.11
2018-11-03T10:02:10.867Z,1003.09
2018-11-03T10:03:11.096Z,1003.09
2018-11-03T10:04:11.320Z,1003.11
2018-11-03T10:05:11.545Z,1003.10
2018-11-03T10:06:11.772Z,1003.10
2018-11-03T10:07:12.002Z,1003.12
2018-11-03T10:08:12.227Z,1003.08
2018-11-03T10:09:12.451Z,1003.10
2018-11-03T10:10:12.678Z,1003.09
2018-11-03T10:11:12.904Z,1003.12
2018-11-03T10:12:13.130Z,1003.09
2018-11-03T10:13:13.357Z,1003.08
2018-11-03T10:14:13.582Z,1003.10
2018-11-03T10:15:13.809Z,1003.13
2018-11-03T10:16:14.038Z,1003.15
2018-11-03T10:17:14.264Z,1003.14
2018-11-03T10:18:14.490Z,1003.12
2018-11-03T10:19:14.750Z,1003.14
2018-11-03T10:20:14.944Z,1003.16
2018-11-03T10:21:15.171Z,1003.14
2018-11-03T10:22:15.518Z,1003.12
2018-11-03T10:23:15.624Z,1003.11
2018-11-03T10:24:15.852Z,1003.09
2018-11-03T10:25:16.077Z,1003.04
2018-11-03T10:26:16.302Z,1003.03
2018-11-03T10:27:16.532Z,1003.04
2018-11-03T10:28:16.752Z,1003.04
2018-11-03T10:29:16.982Z,1003.07
2018-11-03T10:30:17.205Z,1003.10
2018-11-03T10:31:17.434Z,1003.03
2018-11-03T10:32:17.662Z,1002.98
2018-11-03T10:33:17.923Z,1003.00
2018-11-03T10:34:18.113Z,1002.93
2018-11-03T10:35:18.340Z,1002.89
2018-11-03T10:36:18.564Z,1002.88
2018-11-03T10:37:18.770Z,1002.83
2018-11-03T10:38:19.004Z,1002.85
2018-11-03T10:39:19.231Z,1002.82
2018-11-03T10:40:19.484Z,1002.76
2018-11-03T10:41:19.685Z,1002.78
2018-11-03T10:42:19.986Z,1002.83
2018-11-03T10:43:20.133Z,1002.75
2018-11-03T10:44:20.359Z,1002.76
2018-11-03T10:45:20.584Z,1002.71
2018-11-03T10:46:20.913Z,1002.73
2018-11-03T10:47:21.036Z,1002.71
2018-11-03T10:48:21.265Z,1002.73
2018-11-03T10:49:21.491Z,1002.71
2018-11-03T10:50:21.718Z,1002.72
2018-11-03T10:51:21.943Z,1002.71
2018-11-03T10:52:22.171Z,1002.70
2018-11-03T10:53:22.398Z,1002.72
2018-11-03T10:54:22.620Z,1002.69
2018-11-03T10:55:22.849Z,1002.71
2018-11-03T10:56:23.110Z,1002.67
2018-11-03T10:57:23.303Z,1002.66
2018-11-03T10:58:23.530Z,1002.67
2018-11-03T10:59:23.758Z,1002.65
2018-11-03T11:00:23.983Z,1002.65
2018-11-03T11:01:24.210Z,1002.62
2018-11-03T11:02:24.439Z,1002.59
2018-11-03T11:03:24.773Z,1002.60
2018-11-03T11:04:24.891Z,1002.59
2018-11-03T11:05:25.197Z,1002.63
2018-11-03T11:06:25.345Z,1002.62
2018-11-03T11:07:25.570Z,1002.61
2018-11-03T11:08:25.794Z,1002.56
2018-11-03T11:09:26.023Z,1002.57
2018-11-03T11:10:26.251Z,1002.57
2018-11-03T11:11:26.483Z,1002.59
2018-11-03T11:12:26.714Z,1002.59
2018-11-03T11:13:26.940Z,1002.61
2018-11-03T11:14:27.169Z,1002.57
2018-11-03T11:15:27.394Z,1002.49
2018-11-03T11:16:27.752Z,1002.47
2018-11-03T11:17:27.852Z,1002.45
2018-11-03T11:18:28.156Z,1002.42
2018-11-03T11:19:28.310Z,1002.42
2018-11-03T11:20:28.535Z,1002.42
2018-11-03T11:21:28.759Z,1002.38
2018-11-03T11:22:28.990Z,1002.42
2018-11-03T11:23:29.271Z,1002.44
2018-11-03T11:24:29.545Z,1002.43
2018-11-03T11:25:29.763Z,1002.43
2018-11-03T11:26:29.897Z,1002.38
2018-11-03T11:27:30.133Z,1002.41
2018-11-03T11:28:30.361Z,1002.36
2018-11-03T11:29:30.586Z,1002.34
2018-11-03T11:30:30.815Z,1002.35
2018-11-03T11:31:31.064Z,1002.33
2018-11-03T11:32:31.292Z,1002.33
2018-11-03T11:33:31.507Z,1002.33
2018-11-03T11:34:31.724Z,1002.32
2018-11-03T11:35:31.951Z,1002.31
2018-11-03T11:36:32.176Z,1002.30
2018-11-03T11:37:32.421Z,1002.28
2018-11-03T11:38:32.636Z,1002.26
2018-11-03T11:39:32.862Z,1002.20
2018-11-03T11:40:33.087Z,1002.18
2018-11-03T11:41:33.316Z,1002.21
2018-11-03T11:42:33.543Z,1002.15
2018-11-03T11:43:33.775Z,1002.19
2018-11-03T11:44:34.001Z,1002.17
2018-11-03T11:45:34.231Z,1002.11
2018-11-03T11:46:34.459Z,1002.14
2018-11-03T11:47:34.684Z,1002.16
2018-11-03T11:48:34.928Z,1002.15
2018-11-03T11:49:35.144Z,1002.14
2018-11-03T11:50:35.372Z,1002.13
2018-11-03T11:51:35.599Z,1002.15
2018-11-03T11:52:35.839Z,1002.16
2018-11-03T11:53:36.052Z,1002.12
2018-11-03T11:54:36.284Z,1002.12
2018-11-03T11:55:36.512Z,1002.10
2018-11-03T11:56:36.740Z,1002.06
2018-11-03T11:57:36.968Z,1002.08
2018-11-03T11:58:37.199Z,1002.04
2018-11-03T11:59:37.425Z,1001.99
2018-11-03T12:00:37.657Z,1001.99
2018-11-03T12:01:37.879Z,1001.97
2018-11-03T12:02:38.107Z,1001.98
2018-11-03T12:03:38.336Z,1001.94
2018-11-03T12:04:38.560Z,1001.92
2018-11-03T12:05:38.786Z,1001.92
2018-11-03T12:06:39.018Z,1001.87
2018-11-03T12:07:39.241Z,1001.90
2018-11-03T12:08:39.472Z,1001.93